Reno, NV (89515)

2:14 AM PDT on August 29, 2014 (GMT -0700)
Donner Springs | Change Station
CLOSE
Current Station
Personal Weather Station
Location: Reno, NV
Elevation: 4403 ft
Nearby Weather Stations

Elev 4403 ft 39.48 °N, 119.75 °W | Updated 11 seconds ago

Clear
Clear
63.5 °F
Feels Like 63.5 °F
N
0.0
Wind Variable Wind from East
Gusts 0.0 mph

Today
High -- | Low -- °F
--% Chance of Precip.
Yesterday
High -- | Low -- °F
Precip. -- in
6:24 AM 7:34 PM
Waxing Crescent, 13% visible
Pressure 29.93 in
Visibility 10.0 miles
Clouds Clear
Dew Point 42 °F
Humidity 45%
Rainfall 0.00 in
Snow Depth Not available.
UV 0 out of 12
Pollen 8.40 out of 12
Air Quality Not available.
Flu Activity Not available.
METAR KRNO 290855Z 00000KT 10SM CLR 22/05 A3011 RMK AO2 SLP133 T02170050 58002

More Conditions Fewer Conditions

Pressure 29.93 in
Visibility 10.0 miles
Clouds Clear
Dew Point 42 °F
Humidity 45%
Rainfall 0.00 in
Snow Depth Not available.
UV 0 out of 12
Pollen 8.40 out of 12
Air Quality Not available.
Flu Activity Not available.
METAR KRNO 290855Z 00000KT 10SM CLR 22/05 A3011 RMK AO2 SLP133 T02170050 58002

More Conditions Fewer Conditions

10-Day Weather Forecast

Almanac

Astronomy

Aug. 29, 2014 Rise Set
Actual Time 6:24 AM PDT 7:34 PM PDT
Civil Twilight 5:56 AM PDT 8:02 PM PDT
Nautical Twilight 5:23 AM PDT 8:35 PM PDT
Astronomical Twilight 4:49 AM PDT 9:09 PM PDT
Moon 10:17 AM PDT 9:36 PM PDT
Length of Visible Light 14h 05m
Length of Day
13h 09m
Tomorrow will be 2m 28s shorter.
Waxing Crescent, 13% of the Moon is Illuminated
Today
Waxing Crescent
Sep 2
First Quarter
Sep 8
Full
Sep 15
Last Quarter
Sep 24
New

Today's Extremes

State Highs State Lows

Community

WunderPhotos

Upload Photos

1,748,203 photos uploaded!

Nearby

Snow Depth

Station Depth Elevation
Marlette Lake 0 in 8000 ft
Big Creek Summit 0 in 8700 ft
Lewis Peak 0 in 7400 ft
Sheldon 0 in 5860 ft
Lamance Creek 1 in 6000 ft

Earthquake Activity

City Distance Mag. Time & Date
Lakeview, Oregon 138 miles 3.5 1:47 AM PDT
2014-08-29
Minimum magnitude displayed is 2.5.

Coastal Water Temperatures

Place Temperature
No Stations Reporting

Nearby Weather Stations